createdAt,value
2019-05-13T00:01:46.372Z,4.87
2019-05-13T00:04:36.843Z,5.77
2019-05-13T00:07:26.905Z,5.23
2019-05-13T00:10:16.964Z,6.03
2019-05-13T00:13:07.252Z,6.13
2019-05-13T00:15:57.732Z,6.83
2019-05-13T00:18:48.200Z,6.07
2019-05-13T00:21:38.741Z,6.37
2019-05-13T00:24:28.976Z,7.23
2019-05-13T00:27:19.094Z,6.93
2019-05-13T00:30:10.339Z,7.57
2019-05-13T00:33:00.525Z,6.63
2019-05-13T00:35:50.769Z,7.80
2019-05-13T00:38:41.065Z,7.30
2019-05-13T00:41:33.177Z,6.90
2019-05-13T00:44:24.385Z,6.23
2019-05-13T00:47:15.581Z,7.20
2019-05-13T00:50:06.361Z,6.83
2019-05-13T00:52:56.535Z,6.70
2019-05-13T00:55:46.903Z,7.33
2019-05-13T00:58:38.399Z,6.63
2019-05-13T01:01:28.533Z,6.80
2019-05-13T01:04:18.900Z,7.00
2019-05-13T01:07:22.845Z,7.30
2019-05-13T01:10:00.877Z,7.37
2019-05-13T01:12:50.969Z,6.97
2019-05-13T01:15:44.076Z,7.13
2019-05-13T01:18:34.052Z,6.90
2019-05-13T01:21:24.283Z,7.27
2019-05-13T01:24:14.744Z,7.03
2019-05-13T01:27:04.696Z,7.17
2019-05-13T01:29:55.013Z,7.10
2019-05-13T01:32:45.414Z,6.83
2019-05-13T01:35:35.901Z,6.70
2019-05-13T01:38:26.196Z,6.47
2019-05-13T01:41:16.446Z,6.80
2019-05-13T01:44:06.791Z,6.70
2019-05-13T01:46:57.191Z,7.13
2019-05-13T01:49:47.130Z,6.77
2019-05-13T01:52:37.413Z,6.43
2019-05-13T01:55:27.704Z,6.80
2019-05-13T01:58:17.930Z,7.07
2019-05-13T02:01:08.400Z,6.40
2019-05-13T02:03:58.862Z,7.67
2019-05-13T02:06:48.921Z,7.17
2019-05-13T02:09:39.336Z,6.80
2019-05-13T02:12:29.400Z,6.80
2019-05-13T02:15:19.720Z,7.00
2019-05-13T02:18:10.089Z,6.23
2019-05-13T02:21:00.345Z,7.27
2019-05-13T02:23:50.630Z,6.50
2019-05-13T02:26:40.906Z,6.57
2019-05-13T02:29:31.457Z,6.37
2019-05-13T02:32:23.450Z,6.33
2019-05-13T02:35:14.988Z,5.90
2019-05-13T02:38:19.549Z,6.30
2019-05-13T02:40:57.422Z,6.17
2019-05-13T02:43:47.807Z,6.20
2019-05-13T02:46:38.045Z,6.10
2019-05-13T02:49:28.063Z,6.10
2019-05-13T02:52:18.301Z,5.93
2019-05-13T02:55:12.049Z,5.53
2019-05-13T02:58:03.130Z,5.40
2019-05-13T03:00:53.814Z,5.33
2019-05-13T03:03:44.527Z,5.20
2019-05-13T03:06:35.160Z,5.27
2019-05-13T03:09:25.485Z,5.57
2019-05-13T03:12:15.785Z,5.30
2019-05-13T03:15:05.979Z,4.90
2019-05-13T03:18:06.668Z,5.20
2019-05-13T03:20:58.009Z,5.00
2019-05-13T03:23:48.473Z,5.43
2019-05-13T03:26:38.707Z,5.53
2019-05-13T03:29:28.942Z,6.03
2019-05-13T03:32:25.722Z,5.70
2019-05-13T03:35:16.328Z,5.90
2019-05-13T03:38:03.607Z,6.47
2019-05-13T03:40:54.195Z,6.43
2019-05-13T03:43:44.657Z,6.27
2019-05-13T03:46:35.199Z,6.50
2019-05-13T03:49:26.371Z,6.60
2019-05-13T03:52:16.510Z,6.40
2019-05-13T03:55:06.843Z,6.23
2019-05-13T03:57:57.161Z,6.27
2019-05-13T04:00:47.327Z,5.70
2019-05-13T04:03:37.650Z,5.60
2019-05-13T04:06:27.894Z,6.03
2019-05-13T04:09:29.681Z,5.70
2019-05-13T04:12:13.158Z,5.40
2019-05-13T04:15:03.509Z,5.43
2019-05-13T04:17:53.660Z,5.87
2019-05-13T04:20:43.950Z,5.60
2019-05-13T04:23:34.387Z,5.40
2019-05-13T04:26:24.837Z,6.00
2019-05-13T04:29:15.076Z,5.50
2019-05-13T04:32:05.204Z,5.47
2019-05-13T04:34:55.308Z,5.47
2019-05-13T04:37:45.708Z,5.70
2019-05-13T04:40:36.195Z,6.13
2019-05-13T04:43:30.489Z,6.27
2019-05-13T04:46:18.555Z,6.07
2019-05-13T04:49:08.691Z,6.13
2019-05-13T04:52:03.381Z,6.40
2019-05-13T04:54:52.762Z,6.20
2019-05-13T04:57:43.778Z,5.70
2019-05-13T05:01:09.140Z,6.10
2019-05-13T05:04:11.467Z,5.77
2019-05-13T05:07:38.251Z,5.47
2019-05-13T05:11:16.697Z,5.43
2019-05-13T05:14:52.217Z,6.17
2019-05-13T05:18:28.042Z,5.63
2019-05-13T05:21:25.978Z,5.40
2019-05-13T05:24:52.148Z,5.30
2019-05-13T05:28:11.157Z,5.37
2019-05-13T05:31:23.808Z,5.50
2019-05-13T05:35:01.391Z,5.30
2019-05-13T05:38:38.998Z,5.60
2019-05-13T05:41:31.756Z,5.87
2019-05-13T05:44:22.416Z,5.23
2019-05-13T05:47:12.912Z,5.13
2019-05-13T05:50:03.361Z,5.30
2019-05-13T05:52:53.521Z,5.40
2019-05-13T05:55:43.678Z,4.90
2019-05-13T05:58:34.442Z,4.83
2019-05-13T06:01:24.464Z,4.57
2019-05-13T06:04:15.583Z,4.17
2019-05-13T06:07:06.529Z,4.27
2019-05-13T06:09:56.861Z,4.27
2019-05-13T06:12:47.150Z,3.73
2019-05-13T06:15:37.530Z,3.93
2019-05-13T06:18:27.769Z,4.07
2019-05-13T06:21:21.438Z,4.40
2019-05-13T06:24:11.650Z,4.40
2019-05-13T06:27:02.232Z,4.37
2019-05-13T06:29:53.106Z,4.33
2019-05-13T06:32:43.476Z,4.30
2019-05-13T06:35:33.842Z,4.30
2019-05-13T06:38:24.208Z,4.83
2019-05-13T06:41:14.876Z,5.10
2019-05-13T06:44:05.332Z,5.60
2019-05-13T06:46:55.412Z,5.33
2019-05-13T06:49:45.773Z,5.63
2019-05-13T06:52:36.001Z,5.40
2019-05-13T06:55:26.983Z,6.10
2019-05-13T06:58:17.190Z,5.00
2019-05-13T07:01:07.670Z,4.77
2019-05-13T07:03:58.133Z,5.40
2019-05-13T07:06:51.478Z,5.73
2019-05-13T07:09:42.686Z,5.50
2019-05-13T07:12:33.180Z,5.03
2019-05-13T07:15:23.429Z,6.10
2019-05-13T07:18:16.208Z,5.50
2019-05-13T07:21:05.822Z,5.50
2019-05-13T07:23:56.707Z,5.67
2019-05-13T07:26:46.850Z,5.60
2019-05-13T07:29:37.199Z,5.67
2019-05-13T07:32:27.545Z,4.90
2019-05-13T07:35:17.828Z,4.83
2019-05-13T07:38:08.149Z,4.80
2019-05-13T07:41:02.930Z,4.97
2019-05-13T07:43:53.252Z,4.50
2019-05-13T07:46:43.651Z,4.50
2019-05-13T07:49:34.067Z,4.47
2019-05-13T07:52:24.710Z,4.53
2019-05-13T07:55:14.864Z,4.60
2019-05-13T07:58:05.164Z,4.73
2019-05-13T08:00:55.386Z,4.80
2019-05-13T08:03:45.754Z,4.90
2019-05-13T08:06:36.167Z,4.63
2019-05-13T08:09:26.351Z,4.67
2019-05-13T08:12:16.571Z,4.90
2019-05-13T08:15:07.113Z,5.47
2019-05-13T08:17:57.458Z,5.10
2019-05-13T08:20:48.096Z,5.43
2019-05-13T08:23:38.571Z,5.50
2019-05-13T08:26:28.849Z,4.93
2019-05-13T08:29:18.848Z,5.27
2019-05-13T08:32:11.162Z,5.23
2019-05-13T08:35:08.359Z,4.93
2019-05-13T08:37:52.803Z,5.37
2019-05-13T08:40:43.091Z,4.80
2019-05-13T08:43:33.489Z,4.60
2019-05-13T08:46:24.660Z,4.30
2019-05-13T08:49:15.196Z,4.70
2019-05-13T08:52:05.542Z,4.00
2019-05-13T08:54:56.040Z,4.47
2019-05-13T08:57:46.348Z,4.73
2019-05-13T09:00:47.820Z,4.77
2019-05-13T09:03:41.326Z,4.43
2019-05-13T09:06:31.291Z,4.60
2019-05-13T09:09:22.076Z,4.63
2019-05-13T09:12:28.135Z,4.67
2019-05-13T09:15:05.580Z,4.70
2019-05-13T09:17:56.920Z,4.40
2019-05-13T09:20:48.313Z,4.70
2019-05-13T09:23:41.226Z,4.43
2019-05-13T09:26:31.649Z,4.43
2019-05-13T09:29:22.551Z,4.53
2019-05-13T09:32:12.767Z,4.90
2019-05-13T09:35:03.328Z,4.07
2019-05-13T09:37:53.474Z,4.43
2019-05-13T09:40:43.671Z,4.90
2019-05-13T09:43:33.928Z,4.60
2019-05-13T09:46:24.120Z,4.93
2019-05-13T09:49:19.847Z,5.10
2019-05-13T09:52:06.333Z,5.10
2019-05-13T09:54:56.265Z,5.13
2019-05-13T09:57:46.248Z,5.30
2019-05-13T10:00:36.244Z,5.40
2019-05-13T10:03:29.505Z,5.30
2019-05-13T10:06:18.275Z,5.60
2019-05-13T10:09:08.947Z,5.27
2019-05-13T10:12:03.036Z,5.53
2019-05-13T10:14:53.025Z,5.20
2019-05-13T10:17:43.173Z,5.13
2019-05-13T10:20:49.185Z,5.17
2019-05-13T10:23:41.835Z,5.00
2019-05-13T10:26:32.034Z,5.20
2019-05-13T10:29:22.731Z,4.63
2019-05-13T10:32:13.032Z,5.17
2019-05-13T10:35:03.699Z,5.20
2019-05-13T10:37:54.058Z,5.30
2019-05-13T10:40:44.292Z,4.80
2019-05-13T10:46:26.225Z,5.77
2019-05-13T10:49:16.526Z,4.90
2019-05-13T10:52:07.082Z,5.27
2019-05-13T10:54:57.516Z,5.50
2019-05-13T10:57:47.788Z,4.80
2019-05-13T11:00:51.647Z,4.90
2019-05-13T11:03:42.686Z,5.37
2019-05-13T11:06:33.059Z,4.57
2019-05-13T11:09:23.610Z,4.83
2019-05-13T11:12:13.898Z,5.03
2019-05-13T11:15:04.397Z,4.50
2019-05-13T11:17:54.681Z,4.33
2019-05-13T11:20:45.051Z,4.77
2019-05-13T11:23:35.557Z,4.47
2019-05-13T11:26:25.948Z,4.60
2019-05-13T11:29:16.016Z,4.50
2019-05-13T11:32:06.209Z,4.40
2019-05-13T11:34:56.309Z,4.73
2019-05-13T11:37:46.316Z,4.13
2019-05-13T11:40:36.621Z,4.00
2019-05-13T11:43:28.048Z,4.90
2019-05-13T11:46:18.761Z,4.40
2019-05-13T11:49:08.693Z,5.00
2019-05-13T11:52:02.701Z,4.43
2019-05-13T11:54:53.740Z,4.60
2019-05-13T11:57:44.675Z,4.10
2019-05-13T12:00:53.072Z,4.60
2019-05-13T12:03:43.531Z,4.60
2019-05-13T12:06:34.492Z,4.80
2019-05-13T12:09:25.243Z,4.63
2019-05-13T12:12:15.516Z,4.77
2019-05-13T12:15:26.478Z,4.70
2019-05-13T12:17:57.984Z,4.50
2019-05-13T12:20:48.237Z,4.43
2019-05-13T12:23:38.478Z,4.60
2019-05-13T12:26:32.696Z,5.10
2019-05-13T12:29:21.537Z,4.50
2019-05-13T12:32:13.824Z,4.40
2019-05-13T12:35:04.364Z,4.50
2019-05-13T12:37:56.008Z,4.87
2019-05-13T12:40:46.021Z,4.60
2019-05-13T12:43:36.143Z,5.37
2019-05-13T12:46:26.434Z,5.50
2019-05-13T12:49:16.892Z,5.33
2019-05-13T12:52:07.349Z,5.63
2019-05-13T12:54:57.471Z,5.20
2019-05-13T12:57:47.673Z,5.80
2019-05-13T13:00:37.976Z,6.50
2019-05-13T13:03:27.931Z,6.80
2019-05-13T13:06:31.436Z,7.37
2019-05-13T13:09:09.455Z,6.63
2019-05-13T13:11:59.967Z,7.17
2019-05-13T13:14:54.523Z,7.10
2019-05-13T13:17:41.862Z,7.40
2019-05-13T13:20:35.412Z,7.30
2019-05-13T13:23:24.320Z,8.17
2019-05-13T13:26:16.116Z,8.83
2019-05-13T13:29:06.732Z,9.00
2019-05-13T13:31:57.120Z,9.27
2019-05-13T13:34:47.463Z,9.20
2019-05-13T13:37:37.754Z,9.30
2019-05-13T13:40:29.526Z,9.43
2019-05-13T13:43:23.517Z,9.77
2019-05-13T13:46:32.374Z,9.17
2019-05-13T13:49:02.842Z,9.20
2019-05-13T13:51:53.148Z,9.73
2019-05-13T13:54:44.421Z,9.90
2019-05-13T13:57:34.562Z,9.77
2019-05-13T14:00:38.100Z,9.90
2019-05-13T14:03:16.740Z,9.17
2019-05-13T14:06:07.127Z,9.70
2019-05-13T14:07:00.542Z,4.43
2019-05-13T14:08:57.448Z,9.50
2019-05-13T14:11:47.706Z,9.33
2019-05-13T14:14:37.691Z,9.10
2019-05-13T14:17:27.903Z,8.07
2019-05-13T14:20:18.255Z,7.40
2019-05-13T14:23:08.255Z,8.03
2019-05-13T14:25:58.510Z,7.80
2019-05-13T14:28:48.926Z,8.10
2019-05-13T14:31:41.342Z,7.10
2019-05-13T14:34:31.916Z,7.60
2019-05-13T14:37:22.540Z,7.67
2019-05-13T14:40:13.050Z,5.97
2019-05-13T14:43:03.876Z,6.07
2019-05-13T14:45:54.264Z,7.27
2019-05-13T14:48:44.523Z,6.43
2019-05-13T14:51:35.055Z,6.17
2019-05-13T14:54:25.178Z,6.57
2019-05-13T14:57:15.728Z,6.20
2019-05-13T15:00:07.268Z,5.93
2019-05-13T15:02:57.541Z,5.67
2019-05-13T15:05:47.824Z,6.40
2019-05-13T15:08:37.874Z,6.27
2019-05-13T15:11:28.287Z,6.10
2019-05-13T15:14:18.674Z,6.57
2019-05-13T15:17:09.081Z,6.00
2019-05-13T15:19:59.005Z,6.53
2019-05-13T15:22:51.678Z,7.03
2019-05-13T15:25:42.011Z,6.97
2019-05-13T15:28:32.298Z,7.60
2019-05-13T15:31:22.529Z,6.90
2019-05-13T15:34:12.906Z,6.30
2019-05-13T15:37:03.156Z,5.30
2019-05-13T15:39:53.513Z,5.47
2019-05-13T15:42:43.570Z,5.63
2019-05-13T15:45:34.076Z,6.40
2019-05-13T15:48:24.571Z,6.03
2019-05-13T15:51:14.648Z,6.27
2019-05-13T15:54:04.862Z,6.63
2019-05-13T15:56:55.668Z,6.53
2019-05-13T15:59:46.903Z,6.50
2019-05-13T16:02:37.052Z,6.23
2019-05-13T16:05:26.978Z,6.03
2019-05-13T16:08:17.791Z,6.10
2019-05-13T16:11:08.090Z,5.87
2019-05-13T16:13:58.524Z,6.20
2019-05-13T16:16:48.733Z,5.90
2019-05-13T16:19:39.109Z,6.30
2019-05-13T16:22:31.540Z,6.07
2019-05-13T16:25:21.125Z,5.97
2019-05-13T16:28:11.347Z,6.23
2019-05-13T16:31:02.329Z,5.83
2019-05-13T16:33:52.907Z,6.70
2019-05-13T16:36:43.339Z,6.37
2019-05-13T16:39:33.287Z,5.70
2019-05-13T16:42:23.317Z,5.80
2019-05-13T16:45:14.268Z,5.47
2019-05-13T16:48:05.006Z,5.30
2019-05-13T16:50:55.176Z,5.60
2019-05-13T16:53:45.644Z,5.30
2019-05-13T16:56:35.713Z,5.60
2019-05-13T16:59:25.786Z,5.03
2019-05-13T17:02:16.017Z,5.20
2019-05-13T17:05:06.790Z,4.73
2019-05-13T17:07:56.766Z,5.37
2019-05-13T17:10:47.081Z,5.33
2019-05-13T17:13:37.273Z,5.50
2019-05-13T17:16:27.980Z,4.43
2019-05-13T17:19:18.367Z,4.90
2019-05-13T17:22:08.632Z,4.77
2019-05-13T17:24:58.911Z,4.20
2019-05-13T17:27:51.490Z,4.57
2019-05-13T17:30:41.765Z,4.80
2019-05-13T17:33:32.065Z,4.33
2019-05-13T17:36:22.301Z,3.83
2019-05-13T17:39:12.840Z,4.07
2019-05-13T17:42:02.747Z,4.10
2019-05-13T17:44:53.206Z,3.80
2019-05-13T17:47:43.351Z,4.67
2019-05-13T17:50:34.281Z,4.97
2019-05-13T17:53:27.452Z,5.10
2019-05-13T17:56:17.666Z,5.37
2019-05-13T17:59:11.184Z,5.00
2019-05-13T18:02:02.629Z,4.63
2019-05-13T18:04:53.279Z,4.23
2019-05-13T18:07:43.738Z,3.87
2019-05-13T18:10:33.729Z,4.17
2019-05-13T18:13:24.022Z,4.30
2019-05-13T18:16:13.963Z,3.53
2019-05-13T18:19:04.234Z,3.70
2019-05-13T18:21:54.508Z,3.50
2019-05-13T18:24:44.896Z,3.50
2019-05-13T18:27:35.124Z,3.20
2019-05-13T18:30:25.493Z,3.10
2019-05-13T18:33:15.972Z,3.00
2019-05-13T18:36:06.444Z,3.10
2019-05-13T18:38:56.614Z,3.37
2019-05-13T18:41:47.414Z,3.17
2019-05-13T18:44:37.617Z,3.67
2019-05-13T18:47:27.891Z,3.40
2019-05-13T18:50:18.185Z,3.50
2019-05-13T18:53:08.337Z,3.50
2019-05-13T18:55:58.433Z,3.80
2019-05-13T18:58:48.732Z,3.50
2019-05-13T19:01:38.919Z,3.57
2019-05-13T19:04:31.294Z,3.57
2019-05-13T19:07:21.853Z,3.70
2019-05-13T19:10:13.155Z,3.50
2019-05-13T19:13:03.341Z,3.50
2019-05-13T19:15:53.678Z,3.60
2019-05-13T19:18:47.825Z,4.10
2019-05-13T19:21:37.833Z,4.07
2019-05-13T19:24:28.062Z,3.90
2019-05-13T19:27:18.185Z,4.00
2019-05-13T19:30:08.450Z,3.73
2019-05-13T19:33:01.243Z,3.70
2019-05-13T19:35:51.902Z,4.10
2019-05-13T19:38:42.552Z,4.30
2019-05-13T19:41:35.925Z,4.00
2019-05-13T19:44:27.733Z,3.90
2019-05-13T19:47:17.899Z,3.87
2019-05-13T19:50:08.566Z,4.20
2019-05-13T19:53:01.172Z,4.10
2019-05-13T19:55:51.987Z,3.70
2019-05-13T19:58:42.467Z,4.00
2019-05-13T20:01:32.803Z,3.97
2019-05-13T20:04:23.176Z,4.00
2019-05-13T20:07:13.220Z,4.00
2019-05-13T20:10:03.420Z,4.37
2019-05-13T20:12:53.799Z,4.23
2019-05-13T20:15:44.038Z,4.90
2019-05-13T20:18:34.503Z,4.57
2019-05-13T20:21:24.673Z,5.10
2019-05-13T20:24:14.897Z,5.00
2019-05-13T20:27:05.165Z,4.87
2019-05-13T20:29:55.850Z,5.60
2019-05-13T20:32:46.277Z,5.33
2019-05-13T20:35:36.509Z,5.27
2019-05-13T20:38:26.656Z,5.00
2019-05-13T20:41:16.889Z,5.63
2019-05-13T20:44:07.192Z,5.13
2019-05-13T20:46:57.397Z,5.93
2019-05-13T20:49:58.301Z,5.23
2019-05-13T20:52:39.123Z,5.90
2019-05-13T20:55:29.363Z,5.87
2019-05-13T20:58:21.443Z,5.90
2019-05-13T21:01:11.903Z,5.53
2019-05-13T21:04:02.681Z,5.20
2019-05-13T21:06:53.056Z,5.80
2019-05-13T21:09:43.695Z,5.40
2019-05-13T21:12:33.849Z,5.70
2019-05-13T21:15:24.242Z,5.70
2019-05-13T21:18:14.506Z,5.77
2019-05-13T21:21:04.730Z,5.83
2019-05-13T21:23:54.754Z,5.57
2019-05-13T21:26:45.129Z,5.10
2019-05-13T21:29:35.381Z,5.20
2019-05-13T21:32:25.821Z,5.57
2019-05-13T21:35:21.230Z,5.40
2019-05-13T21:38:16.958Z,6.33
2019-05-13T21:41:08.096Z,6.00
2019-05-13T21:43:58.379Z,6.17
2019-05-13T21:46:48.534Z,6.10
2019-05-13T21:49:39.011Z,6.87
2019-05-13T21:52:29.298Z,6.50
2019-05-13T21:55:21.703Z,7.07
2019-05-13T21:58:14.113Z,7.40
2019-05-13T22:01:04.060Z,7.13
2019-05-13T22:03:54.362Z,7.00
2019-05-13T22:06:44.434Z,8.00
2019-05-13T22:09:34.638Z,8.00
2019-05-13T22:12:25.138Z,8.30
2019-05-13T22:15:15.358Z,8.03
2019-05-13T22:18:05.604Z,7.70
2019-05-13T22:20:55.962Z,8.43
2019-05-13T22:23:46.099Z,7.90
2019-05-13T22:26:36.266Z,8.00
2019-05-13T22:29:26.676Z,8.60
2019-05-13T22:32:17.057Z,8.17
2019-05-13T22:35:07.400Z,8.20
2019-05-13T22:37:57.603Z,8.43
2019-05-13T22:40:47.753Z,7.57
2019-05-13T22:43:50.542Z,8.53
2019-05-13T22:46:32.049Z,7.87
2019-05-13T22:49:22.188Z,8.03
2019-05-13T22:52:12.461Z,8.03
2019-05-13T22:55:02.699Z,8.20
2019-05-13T22:57:53.994Z,8.33
2019-05-13T23:00:44.283Z,8.10
2019-05-13T23:03:35.722Z,7.80
2019-05-13T23:06:26.092Z,8.20
2019-05-13T23:09:16.586Z,8.07
2019-05-13T23:12:06.446Z,8.30
2019-05-13T23:14:56.649Z,7.63
2019-05-13T23:17:48.569Z,7.63
2019-05-13T23:20:40.897Z,7.73
2019-05-13T23:23:30.672Z,7.50
2019-05-13T23:26:21.137Z,7.07
2019-05-13T23:29:11.116Z,7.00
2019-05-13T23:32:01.625Z,8.10
2019-05-13T23:34:52.011Z,7.90
2019-05-13T23:37:42.373Z,7.67
2019-05-13T23:40:32.487Z,8.00
2019-05-13T23:43:23.000Z,8.07
2019-05-13T23:46:15.327Z,8.10
2019-05-13T23:49:05.738Z,8.73
2019-05-13T23:51:55.949Z,9.40
2019-05-13T23:54:46.494Z,9.53
2019-05-13T23:57:36.521Z,9.07
